Time;durP1;ratioP1;P1;durP2;ratioP2;P2;SDS_P1;SDS_P2;PMS_P1;PMS_P2;Temp;Humidity;BMP_temperature;BMP_pressure;BME280_temperature;BME280_humidity;BME280_pressure;Samples;Min_cycle;Max_cycle;Signal;HPM_P1;HPM_P2
2024/04/17 00:02:09;;;;;;;4.65;4.25;;;8.10;99.90;;;;;;5347431;26;20008;-50
2024/04/17 00:04:35;;;;;;;5.03;4.63;;;8.10;99.90;;;;;;5378403;26;20008;-51
2024/04/17 00:07:01;;;;;;;5.28;4.78;;;8.10;99.90;;;;;;5378375;26;20011;-50
2024/04/17 00:09:26;;;;;;;7.70;5.43;;;8.10;99.90;;;;;;5348044;26;20074;-53
2024/04/17 00:11:52;;;;;;;5.82;5.32;;;8.10;99.90;;;;;;5378713;26;20000;-50
2024/04/17 00:14:17;;;;;;;6.82;5.55;;;8.10;99.90;;;;;;5379054;26;20007;-47
2024/04/17 00:16:43;;;;;;;6.22;5.45;;;8.10;99.90;;;;;;5348216;26;20008;-53
2024/04/17 00:19:08;;;;;;;6.60;6.03;;;8.10;99.90;;;;;;5378818;26;19997;-50
2024/04/17 00:21:34;;;;;;;6.28;5.68;;;7.90;99.90;;;;;;5378390;26;20091;-51
2024/04/17 00:23:59;;;;;;;7.35;5.90;;;8.20;99.90;;;;;;5378329;26;19996;-51
2024/04/17 00:26:25;;;;;;;6.63;5.82;;;8.10;99.90;;;;;;5378353;26;20004;-48
2024/04/17 00:28:50;;;;;;;8.05;6.53;;;8.10;99.90;;;;;;5347761;26;19996;-50
2024/04/17 00:31:16;;;;;;;7.68;6.85;;;8.20;99.90;;;;;;5377863;26;20374;-52
2024/04/17 00:33:41;;;;;;;7.18;6.50;;;8.10;99.90;;;;;;5378610;26;20008;-53
2024/04/17 00:36:07;;;;;;;7.95;7.15;;;8.10;99.90;;;;;;5378449;26;20000;-49
2024/04/17 00:38:32;;;;;;;7.53;6.15;;;8.10;99.90;;;;;;5378571;26;20517;-51
2024/04/17 00:40:58;;;;;;;9.75;6.90;;;8.00;99.90;;;;;;5377627;26;20008;-51
2024/04/17 00:43:23;;;;;;;7.35;6.72;;;8.00;99.90;;;;;;5378392;26;20000;-49
2024/04/17 00:45:49;;;;;;;8.55;7.63;;;7.80;99.90;;;;;;5347198;26;20074;-53
2024/04/17 00:48:15;;;;;;;8.57;7.10;;;8.10;99.90;;;;;;5377803;26;20015;-50
2024/04/17 00:50:45;;;;;;;10.25;7.32;;;8.10;99.90;;;;;;5376671;26;20000;-48
2024/04/17 00:53:14;;;;;;;8.13;7.32;;;8.20;99.90;;;;;;5377613;26;19996;-52
2024/04/17 00:55:40;;;;;;;7.45;6.68;;;8.30;99.90;;;;;;5347686;26;20038;-50
2024/04/17 00:58:06;;;;;;;8.45;6.10;;;8.30;99.90;;;;;;5380756;26;20351;-52
2024/04/17 01:00:32;;;;;;;9.57;6.85;;;8.30;99.90;;;;;;5349760;26;19996;-50
2024/04/17 01:02:58;;;;;;;7.18;6.47;;;8.30;99.90;;;;;;5381052;26;19996;-52
2024/04/17 01:05:23;;;;;;;6.93;6.20;;;8.30;99.90;;;;;;5349928;26;20010;-52
2024/04/17 01:07:49;;;;;;;7.03;6.32;;;8.30;99.90;;;;;;5380858;26;20007;-49
2024/04/17 01:10:15;;;;;;;7.15;6.45;;;8.30;99.90;;;;;;5381035;26;20460;-55
2024/04/17 01:12:40;;;;;;;6.88;6.18;;;8.30;99.90;;;;;;5381347;26;19996;-51
2024/04/17 01:15:09;;;;;;;7.63;6.93;;;8.20;99.90;;;;;;5381034;26;20007;-50
2024/04/17 01:17:36;;;;;;;6.97;6.28;;;8.20;99.90;;;;;;5381539;26;19997;-49
2024/04/17 01:20:02;;;;;;;7.53;6.72;;;8.20;99.90;;;;;;5350514;26;20012;-48
2024/04/17 01:22:28;;;;;;;7.72;6.88;;;8.30;99.90;;;;;;5380891;26;20004;-49
2024/04/17 01:24:53;;;;;;;6.97;6.28;;;8.20;99.90;;;;;;5380827;26;20011;-49
2024/04/17 01:27:19;;;;;;;7.28;6.57;;;8.10;99.90;;;;;;5381322;26;20004;-48
2024/04/17 01:29:44;;;;;;;6.32;5.72;;;8.10;99.90;;;;;;5380848;26;20008;-52
2024/04/17 01:32:10;;;;;;;6.95;6.30;;;8.00;99.90;;;;;;5381394;26;20447;-48
2024/04/17 01:34:35;;;;;;;6.53;5.93;;;8.10;99.90;;;;;;5381286;26;20000;-56
2024/04/17 01:37:01;;;;;;;8.23;6.90;;;8.10;99.90;;;;;;5350384;26;19996;-52
2024/04/17 01:39:27;;;;;;;7.63;6.93;;;8.10;99.90;;;;;;5380650;26;20032;-52
2024/04/17 01:41:52;;;;;;;10.25;7.00;;;8.20;99.90;;;;;;5380291;26;20023;-49
2024/04/17 01:44:18;;;;;;;7.50;6.78;;;8.20;99.90;;;;;;5380452;26;19997;-53
2024/04/17 01:46:43;;;;;;;7.68;6.90;;;8.20;99.90;;;;;;5380695;26;20012;-49
2024/04/17 01:49:09;;;;;;;10.05;7.18;;;8.20;99.90;;;;;;5380414;26;20007;-53
2024/04/17 01:51:34;;;;;;;7.35;6.63;;;8.20;99.90;;;;;;5379763;26;20011;-52
2024/04/17 01:54:00;;;;;;;8.48;5.65;;;8.20;99.90;;;;;;5380638;26;20352;-53
2024/04/17 01:56:25;;;;;;;6.03;5.43;;;8.10;99.90;;;;;;5350435;26;20000;-53
2024/04/17 01:58:50;;;;;;;6.22;5.60;;;8.10;99.90;;;;;;5381209;26;19996;-51
2024/04/17 02:01:16;;;;;;;5.68;5.15;;;8.20;99.90;;;;;;5349991;26;20460;-48
2024/04/17 02:03:41;;;;;;;6.53;4.80;;;8.10;99.90;;;;;;5350181;26;20008;-49
2024/04/17 02:06:07;;;;;;;5.88;4.65;;;8.20;99.90;;;;;;5380359;26;20456;-50
2024/04/17 02:08:33;;;;;;;4.55;4.15;;;8.20;99.90;;;;;;5381043;26;20008;-52
2024/04/17 02:10:58;;;;;;;4.78;4.28;;;8.20;99.90;;;;;;5380404;26;20070;-50
2024/04/17 02:13:24;;;;;;;4.57;4.18;;;8.20;99.90;;;;;;5381092;26;20011;-50
2024/04/17 02:15:49;;;;;;;6.38;4.97;;;8.20;99.90;;;;;;5380864;26;20011;-52
2024/04/17 02:18:15;;;;;;;5.40;4.90;;;8.20;99.90;;;;;;5380785;26;20336;-49
2024/04/17 02:20:40;;;;;;;6.30;5.63;;;8.10;99.90;;;;;;5380543;26;19996;-47
2024/04/17 02:23:06;;;;;;;5.25;4.75;;;8.10;99.90;;;;;;5349804;26;20000;-51
2024/04/17 02:25:32;;;;;;;6.20;5.60;;;8.20;99.90;;;;;;5380575;26;20455;-55
2024/04/17 02:27:57;;;;;;;6.47;5.88;;;8.10;99.90;;;;;;5380024;26;20066;-52
2024/04/17 02:30:23;;;;;;;6.10;5.60;;;8.10;99.90;;;;;;5380511;26;20405;-49
2024/04/17 02:32:50;;;;;;;5.30;4.80;;;8.10;99.90;;;;;;5349747;26;20098;-52
2024/04/17 02:35:16;;;;;;;4.82;4.43;;;8.20;99.90;;;;;;5380980;26;20458;-55
2024/04/17 02:37:41;;;;;;;5.45;4.63;;;8.00;99.90;;;;;;5380644;26;19992;-50
2024/04/17 02:40:08;;;;;;;5.30;4.32;;;8.00;99.90;;;;;;5380374;26;20028;-51
2024/04/17 02:42:33;;;;;;;4.90;4.38;;;8.10;99.90;;;;;;5380521;26;20007;-50
2024/04/17 02:44:59;;;;;;;4.72;4.32;;;8.00;99.90;;;;;;5380143;26;20070;-48
2024/04/17 02:47:25;;;;;;;4.72;4.32;;;8.00;99.90;;;;;;5380069;26;20001;-51
2024/04/17 02:49:50;;;;;;;4.63;4.22;;;7.90;99.90;;;;;;5380338;26;20421;-51
2024/04/17 02:52:16;;;;;;;5.53;5.03;;;7.80;99.90;;;;;;5348617;26;20474;-54
2024/04/17 02:54:41;;;;;;;4.20;3.85;;;7.80;99.90;;;;;;5380016;26;20073;-50
2024/04/17 02:57:07;;;;;;;4.95;4.45;;;7.80;99.90;;;;;;5380417;26;20351;-51
2024/04/17 02:59:32;;;;;;;4.88;4.43;;;7.80;99.90;;;;;;5379961;26;20008;-51
2024/04/17 03:01:58;;;;;;;5.10;4.40;;;7.80;99.90;;;;;;5380497;26;20006;-49
2024/04/17 03:04:23;;;;;;;4.28;3.97;;;7.70;99.90;;;;;;5379551;26;20069;-52
2024/04/17 03:06:49;;;;;;;4.63;4.00;;;7.80;99.90;;;;;;5380130;26;20000;-51
2024/04/17 03:09:14;;;;;;;4.55;4.15;;;7.80;99.90;;;;;;5349252;26;20301;-50
2024/04/17 03:11:40;;;;;;;5.00;4.57;;;7.80;99.90;;;;;;5379901;26;19996;-48
2024/04/17 03:14:05;;;;;;;6.53;4.60;;;7.80;99.90;;;;;;5379981;26;20012;-52
2024/04/17 03:16:31;;;;;;;4.97;4.55;;;7.80;99.90;;;;;;5349370;26;20041;-50
2024/04/17 03:18:56;;;;;;;5.63;5.13;;;7.70;99.90;;;;;;5378096;26;20007;-48
2024/04/17 03:21:22;;;;;;;4.85;4.45;;;7.80;99.90;;;;;;5379448;26;20001;-51
2024/04/17 03:23:47;;;;;;;6.13;5.63;;;7.80;99.90;;;;;;5380189;26;20000;-56
2024/04/17 03:26:13;;;;;;;6.30;5.65;;;7.80;99.90;;;;;;5379880;26;20000;-50
2024/04/17 03:28:38;;;;;;;8.85;5.75;;;7.80;99.90;;;;;;5349258;26;20011;-48
2024/04/17 03:31:04;;;;;;;7.35;5.72;;;7.80;99.90;;;;;;5351000;26;19996;-51
2024/04/17 03:33:29;;;;;;;6.70;5.72;;;7.80;99.90;;;;;;5379987;26;20013;-49
2024/04/17 03:35:59;;;;;;;6.18;5.45;;;7.80;99.90;;;;;;5379789;26;20004;-50
2024/04/17 03:38:25;;;;;;;7.80;5.90;;;7.80;99.90;;;;;;5379628;26;19996;-48
2024/04/17 03:40:51;;;;;;;7.70;6.18;;;7.90;99.90;;;;;;5379789;26;20008;-48
2024/04/17 03:43:17;;;;;;;7.55;6.30;;;7.80;99.90;;;;;;5379784;26;20007;-52
2024/04/17 03:45:42;;;;;;;7.90;7.10;;;7.80;99.90;;;;;;5379958;26;20000;-52
2024/04/17 03:48:08;;;;;;;9.60;7.30;;;7.90;99.90;;;;;;5349131;26;20336;-51
2024/04/17 03:50:33;;;;;;;7.65;6.85;;;7.90;99.90;;;;;;5379210;26;20011;-49
2024/04/17 03:52:59;;;;;;;7.35;6.30;;;7.90;99.90;;;;;;5349329;26;20452;-49
2024/04/17 03:55:24;;;;;;;6.03;5.53;;;7.90;99.90;;;;;;5379946;26;19996;-53
2024/04/17 03:57:50;;;;;;;7.55;6.78;;;7.90;99.90;;;;;;5348444;26;19992;-49
2024/04/17 04:00:16;;;;;;;8.45;7.60;;;7.90;99.90;;;;;;5379200;26;20356;-51
2024/04/17 04:02:41;;;;;;;7.35;6.65;;;7.90;99.90;;;;;;5379317;26;20000;-53
2024/04/17 04:05:07;;;;;;;7.90;6.78;;;7.90;99.90;;;;;;5379408;26;20363;-54
2024/04/17 04:07:32;;;;;;;9.70;7.68;;;7.90;99.90;;;;;;5379422;26;20012;-52
2024/04/17 04:09:58;;;;;;;8.13;7.05;;;7.90;99.90;;;;;;5378793;26;20015;-47
2024/04/17 04:12:24;;;;;;;8.50;7.10;;;7.80;99.90;;;;;;5379116;26;20000;-49
2024/04/17 04:14:49;;;;;;;8.00;7.20;;;7.80;99.90;;;;;;5378979;26;20004;-50
2024/04/17 04:17:15;;;;;;;8.80;7.90;;;7.90;99.90;;;;;;5379252;26;20351;-47
2024/04/17 04:19:40;;;;;;;10.70;8.20;;;7.80;99.90;;;;;;5348044;26;20008;-47
2024/04/17 04:22:06;;;;;;;9.52;7.80;;;7.80;99.90;;;;;;5379246;26;20000;-49
2024/04/17 04:24:31;;;;;;;10.98;8.02;;;7.80;99.90;;;;;;5378917;26;20074;-52
2024/04/17 04:26:57;;;;;;;10.15;8.30;;;7.80;99.90;;;;;;5378914;26;20000;-47
2024/04/17 04:29:24;;;;;;;11.98;8.23;;;7.80;99.90;;;;;;5348626;26;19997;-47
2024/04/17 04:31:49;;;;;;;18.98;8.77;;;7.80;99.90;;;;;;5381813;26;20007;-50
2024/04/17 04:34:15;;;;;;;10.15;8.48;;;7.70;99.90;;;;;;5382678;26;20008;-50
2024/04/17 04:36:40;;;;;;;11.23;8.20;;;7.70;99.90;;;;;;5382204;26;20007;-49
2024/04/17 04:39:06;;;;;;;9.40;7.15;;;7.70;99.90;;;;;;5351218;26;20000;-50
2024/04/17 04:41:31;;;;;;;8.35;7.43;;;7.60;99.90;;;;;;5382059;26;20371;-50
2024/04/17 04:43:56;;;;;;;13.57;8.13;;;7.60;99.90;;;;;;5381796;26;20023;-50
2024/04/17 04:46:23;;;;;;;9.05;8.13;;;7.50;99.90;;;;;;5382291;26;20012;-51
2024/04/17 04:48:48;;;;;;;8.57;6.95;;;7.60;99.90;;;;;;5381889;26;20382;-53
2024/04/17 04:51:14;;;;;;;10.07;7.28;;;7.60;99.90;;;;;;5349874;26;20004;-54
2024/04/17 04:53:39;;;;;;;11.02;8.75;;;7.70;99.90;;;;;;5382127;26;20006;-47
2024/04/17 04:56:05;;;;;;;8.50;7.47;;;7.70;99.90;;;;;;5382446;26;20064;-51
2024/04/17 04:58:31;;;;;;;9.35;7.30;;;7.70;99.90;;;;;;5382039;26;20479;-50
2024/04/17 05:00:57;;;;;;;10.43;8.05;;;7.70;99.90;;;;;;5381823;26;20007;-51
2024/04/17 05:03:22;;;;;;;8.98;6.60;;;7.80;99.90;;;;;;5381779;26;20000;-48
2024/04/17 05:05:48;;;;;;;11.27;6.47;;;7.70;99.90;;;;;;5382085;26;19996;-49
2024/04/17 05:08:13;;;;;;;8.52;6.63;;;7.80;99.90;;;;;;5381607;26;19996;-48
2024/04/17 05:10:39;;;;;;;7.00;5.97;;;7.80;99.90;;;;;;5381436;26;20072;-47
2024/04/17 05:13:05;;;;;;;6.35;5.70;;;7.80;99.90;;;;;;5381926;26;20073;-51
2024/04/17 05:15:30;;;;;;;6.15;5.53;;;7.80;99.90;;;;;;5382481;26;20000;-48
2024/04/17 05:17:56;;;;;;;12.57;6.03;;;7.80;99.90;;;;;;5381708;26;20004;-48
2024/04/17 05:20:22;;;;;;;12.75;4.93;;;7.80;99.90;;;;;;5381768;26;20011;-51
2024/04/17 05:22:47;;;;;;;8.57;5.20;;;7.80;99.90;;;;;;5381500;26;20012;-50
2024/04/17 05:25:15;;;;;;;13.73;5.65;;;7.90;99.90;;;;;;5381597;26;20000;-48
2024/04/17 05:27:41;;;;;;;11.50;4.90;;;7.90;99.90;;;;;;5381722;26;20540;-52
2024/04/17 05:30:08;;;;;;;8.93;5.15;;;8.10;99.90;;;;;;5381192;26;20480;-51
2024/04/17 05:32:33;;;;;;;8.05;4.70;;;8.20;99.90;;;;;;5381463;26;20012;-50
2024/04/17 05:34:59;;;;;;;7.32;4.75;;;8.20;99.90;;;;;;5381364;26;20108;-48
2024/04/17 05:37:25;;;;;;;4.97;4.28;;;8.20;99.90;;;;;;5350428;26;19992;-54
2024/04/17 05:39:50;;;;;;;4.80;4.07;;;8.20;99.90;;;;;;5381118;26;20065;-48
2024/04/17 05:42:16;;;;;;;6.40;3.65;;;8.30;99.90;;;;;;5349147;26;20286;-52
2024/04/17 05:44:41;;;;;;;6.50;3.40;;;8.40;99.90;;;;;;5381095;26;20000;-50
2024/04/17 05:47:07;;;;;;;6.75;3.88;;;8.70;99.90;;;;;;5381587;26;20003;-53
2024/04/17 05:49:32;;;;;;;7.63;4.28;;;8.90;99.90;;;;;;5350068;26;20000;-48
2024/04/17 05:51:58;;;;;;;7.80;3.95;;;9.20;99.90;;;;;;5350704;26;20003;-48
2024/04/17 05:54:23;;;;;;;10.55;3.60;;;9.50;99.90;;;;;;5381221;26;19996;-48
2024/04/17 05:56:50;;;;;;;6.75;3.60;;;9.70;99.90;;;;;;5381697;26;20000;-51
2024/04/17 05:59:15;;;;;;;8.48;4.05;;;9.70;99.90;;;;;;5350512;26;20336;-52
2024/04/17 06:01:41;;;;;;;7.35;3.25;;;9.70;99.90;;;;;;5380825;26;20070;-54
2024/04/17 06:04:07;;;;;;;6.65;3.95;;;9.90;99.90;;;;;;5381513;26;20023;-50
2024/04/17 06:06:32;;;;;;;4.72;4.15;;;10.00;99.90;;;;;;5381478;26;20417;-48
2024/04/17 06:08:58;;;;;;;9.07;3.50;;;10.00;99.90;;;;;;5380796;26;20525;-49
2024/04/17 06:11:24;;;;;;;11.20;3.83;;;10.20;99.90;;;;;;5380372;26;20012;-51
2024/04/17 06:13:50;;;;;;;6.32;3.58;;;10.40;99.90;;;;;;5381103;26;20012;-54
2024/04/17 06:16:16;;;;;;;9.23;3.78;;;10.40;99.90;;;;;;5350055;26;20304;-50
2024/04/17 06:18:41;;;;;;;13.50;4.13;;;10.60;99.90;;;;;;5381333;26;20001;-50
2024/04/17 06:21:07;;;;;;;5.38;3.55;;;10.60;99.90;;;;;;5349754;26;20013;-51
2024/04/17 06:23:32;;;;;;;9.38;3.42;;;10.80;99.90;;;;;;5380498;26;19996;-53
2024/04/17 06:25:58;;;;;;;5.13;3.38;;;11.10;99.90;;;;;;5380815;26;20007;-50
2024/04/17 06:28:24;;;;;;;6.68;3.17;;;11.50;99.90;;;;;;5349429;26;20335;-48
2024/04/17 06:30:49;;;;;;;8.43;3.55;;;11.70;99.90;;;;;;5380296;26;20000;-51
2024/04/17 06:33:15;;;;;;;7.57;3.70;;;11.80;99.90;;;;;;5380661;26;20007;-49
2024/04/17 06:35:40;;;;;;;4.68;3.90;;;12.10;99.90;;;;;;5380623;26;19996;-53
2024/04/17 06:38:06;;;;;;;6.38;3.40;;;12.20;99.90;;;;;;5380219;26;20039;-50
2024/04/17 06:40:31;;;;;;;12.02;4.43;;;12.10;99.90;;;;;;5379972;26;20011;-48
2024/04/17 06:42:57;;;;;;;6.38;3.25;;;12.60;99.90;;;;;;5380086;26;20007;-54
2024/04/17 06:45:22;;;;;;;9.55;3.72;;;12.10;99.90;;;;;;5380171;26;20459;-53
2024/04/17 06:47:48;;;;;;;7.28;3.17;;;11.80;99.90;;;;;;5380081;26;20462;-50
2024/04/17 06:50:13;;;;;;;7.28;3.60;;;11.70;99.90;;;;;;5379483;26;20043;-49
2024/04/17 06:52:39;;;;;;;8.05;3.35;;;11.50;99.90;;;;;;5379832;26;20467;-51
2024/04/17 06:55:04;;;;;;;4.60;3.22;;;12.60;99.90;;;;;;5380297;26;20010;-50
2024/04/17 06:57:30;;;;;;;5.22;2.70;;;13.10;99.90;;;;;;5380434;26;20366;-50
2024/04/17 06:59:55;;;;;;;8.20;3.78;;;13.70;99.90;;;;;;5380143;26;20011;-51
2024/04/17 07:02:21;;;;;;;8.32;3.10;;;15.00;99.90;;;;;;5380202;26;20000;-53
2024/04/17 07:04:46;;;;;;;6.40;3.00;;;15.10;99.90;;;;;;5380229;26;20463;-50
2024/04/17 07:07:12;;;;;;;5.55;2.67;;;16.00;98.40;;;;;;5380189;26;20444;-50
2024/04/17 07:09:38;;;;;;;6.32;2.67;;;16.50;97.20;;;;;;5379789;26;20316;-55
2024/04/17 07:12:05;;;;;;;5.40;2.65;;;17.00;95.60;;;;;;5379946;26;19996;-53
2024/04/17 07:14:31;;;;;;;5.82;2.70;;;17.20;95.00;;;;;;5380149;26;20011;-50
2024/04/17 07:16:56;;;;;;;7.05;3.03;;;17.30;94.60;;;;;;5380051;26;20073;-50
2024/04/17 07:19:24;;;;;;;8.80;3.70;;;17.00;94.80;;;;;;5380132;26;20007;-53
2024/04/17 07:21:50;;;;;;;4.47;2.33;;;17.00;94.80;;;;;;5379728;26;20040;-56
2024/04/17 07:24:16;;;;;;;5.53;2.28;;;17.80;93.40;;;;;;5380250;26;20000;-50
2024/04/17 07:26:41;;;;;;;3.70;1.88;;;18.50;92.30;;;;;;5380093;26;20666;-52
2024/04/17 07:29:07;;;;;;;7.78;2.45;;;18.90;91.40;;;;;;5380000;26;20000;-49
2024/04/17 07:31:32;;;;;;;5.32;2.25;;;19.50;89.30;;;;;;5349264;26;19992;-53
2024/04/17 07:33:58;;;;;;;5.18;1.98;;;19.30;87.40;;;;;;5380142;26;20356;-54
2024/04/17 07:36:23;;;;;;;8.90;2.20;;;19.30;87.50;;;;;;5380718;26;20011;-54
2024/04/17 07:38:49;;;;;;;5.13;2.33;;;18.60;89.00;;;;;;5349188;26;20007;-54
2024/04/17 07:41:14;;;;;;;8.30;2.00;;;18.00;91.10;;;;;;5379562;26;20000;-55
2024/04/17 07:43:40;;;;;;;5.22;2.25;;;18.40;90.40;;;;;;5379818;26;20015;-51
2024/04/17 07:46:05;;;;;;;5.65;2.00;;;18.70;90.00;;;;;;5379470;26;20069;-51
2024/04/17 07:48:32;;;;;;;6.07;1.48;;;19.10;88.80;;;;;;5379065;26;20000;-53
2024/04/17 07:50:58;;;;;;;3.97;1.98;;;19.20;86.70;;;;;;5378676;26;20074;-50
2024/04/17 07:53:23;;;;;;;5.05;1.83;;;18.80;84.70;;;;;;5380766;26;20393;-53
2024/04/17 07:55:49;;;;;;;4.13;1.65;;;19.80;85.40;;;;;;5396988;26;20425;-46
2024/04/17 07:58:14;;;;;;;7.72;1.85;;;20.00;81.20;;;;;;5414708;26;19995;-48
2024/04/17 08:00:41;;;;;;;4.30;2.00;;;20.60;79.50;;;;;;5398485;26;20568;-50
2024/04/17 08:03:07;;;;;;;8.57;2.30;;;20.40;77.70;;;;;;5411654;26;19999;-48
2024/04/17 08:05:32;;;;;;;3.85;1.70;;;20.70;77.50;;;;;;5409035;26;20032;-46
2024/04/17 08:07:58;;;;;;;3.88;1.67;;;20.20;76.10;;;;;;5409043;26;19996;-52
2024/04/17 08:10:24;;;;;;;3.90;1.58;;;19.50;79.10;;;;;;5378781;26;20404;-49
2024/04/17 08:12:52;;;;;;;5.75;1.88;;;20.20;78.30;;;;;;5379017;26;20018;-51
2024/04/17 08:15:20;;;;;;;5.50;2.10;;;17.70;80.00;;;;;;5378816;26;20005;-46
2024/04/17 08:17:46;;;;;;;2.45;1.63;;;17.50;84.30;;;;;;5402719;26;20080;-54
2024/04/17 08:20:12;;;;;;;5.82;1.83;;;16.80;85.00;;;;;;5408704;26;20083;-53
2024/04/17 08:22:38;;;;;;;7.93;1.88;;;17.00;86.10;;;;;;5366613;26;20016;-56
2024/04/17 08:25:03;;;;;;;10.98;2.55;;;17.00;83.90;;;;;;5381013;26;20032;-50
2024/04/17 08:27:29;;;;;;;3.13;1.38;;;16.80;86.10;;;;;;5378655;26;19996;-48
2024/04/17 08:29:54;;;;;;;3.42;1.33;;;16.70;81.90;;;;;;5376905;26;20352;-54
2024/04/17 08:32:20;;;;;;;2.83;1.35;;;17.60;82.00;;;;;;5378632;26;20036;-45
2024/04/17 08:34:45;;;;;;;5.57;1.58;;;17.60;77.40;;;;;;5378953;26;20444;-46
2024/04/17 08:37:11;;;;;;;3.33;1.42;;;17.50;80.50;;;;;;5380906;26;20015;-51
2024/04/17 08:39:36;;;;;;;6.65;1.83;;;18.00;80.20;;;;;;5381865;26;20010;-50
2024/04/17 08:42:06;;;;;;;7.15;1.50;;;18.50;78.90;;;;;;5413734;26;19999;-54
2024/04/17 08:44:34;;;;;;;4.10;1.35;;;18.20;79.10;;;;;;5410871;26;20000;-49
2024/04/17 08:47:02;;;;;;;5.70;1.98;;;17.90;79.10;;;;;;5410968;26;20022;-52
2024/04/17 08:49:31;;;;;;;4.63;1.75;;;17.80;79.70;;;;;;5413847;26;20023;-50
2024/04/17 08:51:58;;;;;;;3.10;1.63;;;17.70;80.20;;;;;;5413390;26;20007;-49
2024/04/17 08:54:24;;;;;;;2.70;1.52;;;17.60;80.20;;;;;;5413426;26;20068;-55
2024/04/17 08:56:50;;;;;;;3.08;1.25;;;17.70;80.40;;;;;;5412603;26;20389;-53
2024/04/17 08:59:15;;;;;;;5.65;1.98;;;17.70;80.30;;;;;;5413242;26;20006;-51
2024/04/17 09:01:42;;;;;;;8.38;1.67;;;17.60;81.10;;;;;;5399547;26;20463;-49
2024/04/17 09:04:09;;;;;;;5.10;1.48;;;17.10;80.10;;;;;;5347161;26;20344;-53
2024/04/17 09:06:39;;;;;;;1.90;1.05;;;17.20;80.60;;;;;;5377845;26;20500;-48
2024/04/17 09:09:08;;;;;;;3.90;1.10;;;17.00;77.90;;;;;;5347136;26;20000;-50
2024/04/17 09:11:35;;;;;;;3.50;1.38;;;16.30;78.80;;;;;;5346603;26;20015;-49
2024/04/17 09:14:00;;;;;;;5.10;1.20;;;15.30;79.20;;;;;;5377582;26;20007;-50
2024/04/17 09:16:26;;;;;;;3.88;2.22;;;15.30;81.30;;;;;;5381174;26;20004;-54
2024/04/17 09:18:51;;;;;;;30.30;17.65;;;15.40;83.10;;;;;;5378516;26;20514;-54
2024/04/17 09:21:17;;;;;;;9.60;6.72;;;16.00;81.90;;;;;;5385121;26;20069;-52
2024/04/17 09:23:43;;;;;;;5.30;2.53;;;16.00;81.90;;;;;;5385250;26;20003;-53
2024/04/17 09:26:18;;;;;;;2.17;1.40;;;15.40;83.00;;;;;;5367899;26;20012;-57
2024/04/17 09:28:49;;;;;;;5.18;1.70;;;15.50;80.90;;;;;;5382248;26;20008;-50
2024/04/17 09:31:15;;;;;;;2.83;1.40;;;14.20;80.70;;;;;;5366879;26;20364;-56
2024/04/17 09:33:45;;;;;;;4.82;1.90;;;14.10;82.00;;;;;;5397222;26;20043;-53
2024/04/17 09:36:10;;;;;;;4.43;1.45;;;14.60;84.80;;;;;;5402040;26;20010;-51
2024/04/17 09:38:36;;;;;;;3.40;1.25;;;14.50;92.30;;;;;;5361834;26;20000;-50
2024/04/17 09:41:01;;;;;;;4.07;1.70;;;15.00;91.50;;;;;;5351748;26;20010;-54
2024/04/17 09:43:29;;;;;;;4.03;1.30;;;15.20;79.80;;;;;;5375378;26;20004;-55
2024/04/17 09:46:07;;;;;;;4.38;1.80;;;14.50;82.20;;;;;;5379342;26;20085;-52
2024/04/17 09:48:36;;;;;;;1.65;1.10;;;13.30;82.80;;;;;;5380416;26;20014;-52
2024/04/17 09:51:04;;;;;;;3.28;1.40;;;13.10;86.30;;;;;;5386501;26;20073;-52
2024/04/17 09:53:33;;;;;;;2.10;1.27;;;13.40;88.50;;;;;;5408941;26;20003;-55
2024/04/17 09:55:59;;;;;;;5.45;1.35;;;13.60;87.50;;;;;;5406007;26;20037;-51
2024/04/17 09:58:34;;;;;;;1.48;1.27;;;13.60;87.00;;;;;;5405959;26;20346;-54
2024/04/17 10:01:07;;;;;;;1.73;1.17;;;13.40;88.60;;;;;;5417232;26;20413;-55
2024/04/17 10:03:33;;;;;;;3.50;1.73;;;13.20;87.60;;;;;;5418521;26;20006;-53
2024/04/17 10:05:59;;;;;;;3.30;1.40;;;13.10;90.60;;;;;;5418777;26;20015;-56
2024/04/17 10:08:28;;;;;;;7.22;3.13;;;13.20;90.60;;;;;;5415878;26;19996;-51
2024/04/17 10:10:55;;;;;;;5.72;1.77;;;13.00;90.70;;;;;;5361846;26;20023;-53
2024/04/17 10:13:22;;;;;;;1.55;1.42;;;12.90;90.40;;;;;;5416338;26;20006;-51
2024/04/17 10:15:48;;;;;;;5.07;1.73;;;12.60;90.60;;;;;;5400976;26;20270;-54
2024/04/17 10:18:14;;;;;;;3.80;1.42;;;12.60;90.40;;;;;;5380224;26;20554;-48
2024/04/17 10:20:41;;;;;;;3.75;1.48;;;12.50;90.20;;;;;;5380395;26;20004;-51
2024/04/17 10:23:07;;;;;;;3.20;1.17;;;12.50;89.80;;;;;;5348917;26;19996;-51
2024/04/17 10:25:33;;;;;;;6.57;1.60;;;12.40;89.20;;;;;;5349026;26;20001;-51
2024/04/17 10:28:03;;;;;;;3.47;1.30;;;12.00;87.50;;;;;;5391238;26;20017;-54
2024/04/17 10:30:34;;;;;;;4.00;1.60;;;11.60;89.30;;;;;;5361355;26;20018;-48
2024/04/17 10:33:00;;;;;;;4.03;1.58;;;12.00;90.20;;;;;;5415497;26;20000;-52
2024/04/17 10:35:28;;;;;;;4.40;1.80;;;12.40;90.10;;;;;;5383540;26;20004;-53
2024/04/17 10:37:53;;;;;;;1.42;1.30;;;12.50;90.30;;;;;;5380164;26;20352;-54
2024/04/17 10:40:20;;;;;;;1.95;1.17;;;12.70;91.00;;;;;;5398946;26;20000;-55
2024/04/17 10:42:46;;;;;;;3.20;1.50;;;12.70;87.50;;;;;;5395069;26;20004;-54
2024/04/17 10:45:11;;;;;;;4.65;2.17;;;12.70;86.00;;;;;;5391500;26;20319;-51
2024/04/17 10:47:37;;;;;;;2.38;1.25;;;12.60;86.00;;;;;;5382389;26;19999;-52
2024/04/17 10:50:04;;;;;;;7.97;1.40;;;12.70;87.10;;;;;;5389681;26;19996;-54
2024/04/17 10:52:31;;;;;;;1.25;1.15;;;13.00;88.40;;;;;;5400822;26;20015;-57
2024/04/17 10:54:59;;;;;;;5.07;1.95;;;13.10;88.40;;;;;;5380779;26;20443;-55
2024/04/17 10:57:28;;;;;;;6.07;1.42;;;13.10;88.30;;;;;;5400756;26;20016;-48
2024/04/17 10:59:53;;;;;;;2.40;1.75;;;13.00;90.10;;;;;;5384082;26;19999;-51
2024/04/17 11:02:19;;;;;;;7.43;1.60;;;13.00;90.00;;;;;;5415949;26;20048;-55
2024/04/17 11:04:45;;;;;;;6.55;1.50;;;13.10;89.50;;;;;;5416887;26;19999;-53
2024/04/17 11:07:11;;;;;;;3.42;1.80;;;13.20;88.10;;;;;;5415185;26;20010;-51
2024/04/17 11:09:42;;;;;;;3.47;1.77;;;12.90;87.70;;;;;;5394441;26;20015;-54
2024/04/17 11:12:14;;;;;;;4.93;1.80;;;13.00;89.40;;;;;;5379794;26;20011;-52
2024/04/17 11:14:39;;;;;;;5.50;2.38;;;13.20;89.60;;;;;;5382237;26;20018;-50
2024/04/17 11:17:05;;;;;;;3.90;2.03;;;13.40;90.50;;;;;;5407787;26;20339;-53
2024/04/17 11:19:30;;;;;;;5.57;2.67;;;13.50;90.90;;;;;;5387495;26;20004;-55
2024/04/17 11:21:57;;;;;;;14.27;7.72;;;13.40;91.70;;;;;;5352000;26;19996;-51
2024/04/17 11:24:23;;;;;;;4.78;2.95;;;13.50;91.30;;;;;;5383558;26;20019;-55
2024/04/17 11:26:48;;;;;;;12.98;3.03;;;13.30;90.50;;;;;;5414705;26;19995;-55
2024/04/17 11:29:19;;;;;;;4.63;2.10;;;13.20;90.70;;;;;;5414732;26;19999;-53
2024/04/17 11:31:45;;;;;;;7.10;2.90;;;13.00;90.70;;;;;;5414063;26;20348;-51
2024/04/17 11:34:21;;;;;;;7.65;3.40;;;13.10;91.20;;;;;;5404464;26;20077;-55
2024/04/17 11:36:47;;;;;;;8.38;2.65;;;13.20;91.20;;;;;;5384361;26;20028;-52
2024/04/17 11:39:13;;;;;;;6.70;2.60;;;13.20;90.50;;;;;;5402384;26;20090;-53
2024/04/17 11:41:40;;;;;;;12.45;3.63;;;13.00;90.90;;;;;;5400432;26;20012;-52
2024/04/17 11:44:08;;;;;;;5.13;2.83;;;13.10;91.30;;;;;;5366078;26;20426;-55
2024/04/17 11:46:34;;;;;;;5.00;1.92;;;12.90;90.00;;;;;;5375844;26;20129;-54
2024/04/17 11:48:59;;;;;;;8.13;3.03;;;13.00;90.90;;;;;;5413711;26;20003;-49
2024/04/17 11:51:25;;;;;;;6.03;2.60;;;13.30;90.50;;;;;;5382196;26;20349;-53
2024/04/17 11:53:50;;;;;;;2.70;2.00;;;13.40;88.50;;;;;;5445857;21;20330;-54
2024/04/17 11:56:16;;;;;;;3.83;1.90;;;13.60;88.60;;;;;;5495064;26;20181;-49
2024/04/17 11:58:43;;;;;;;4.20;3.33;;;13.40;87.80;;;;;;5465985;26;19990;-48
2024/04/17 12:01:09;;;;;;;3.83;2.10;;;13.30;88.50;;;;;;5495879;26;20005;-46
2024/04/17 12:03:34;;;;;;;2.20;1.90;;;13.00;89.40;;;;;;5490305;26;20291;-50
2024/04/17 12:06:00;;;;;;;4.80;2.15;;;13.10;87.40;;;;;;5466241;26;20016;-49
2024/04/17 12:08:27;;;;;;;6.60;2.35;;;13.00;89.20;;;;;;5466690;26;20110;-49
2024/04/17 12:10:53;;;;;;;4.95;2.97;;;13.10;88.60;;;;;;5462711;26;19995;-48
2024/04/17 12:13:18;;;;;;;2.67;2.30;;;13.00;88.60;;;;;;5469708;26;19994;-50
2024/04/17 12:15:44;;;;;;;4.65;2.55;;;12.90;89.60;;;;;;5436250;26;20035;-50
2024/04/17 12:18:09;;;;;;;3.60;2.45;;;13.00;89.00;;;;;;5466901;26;20374;-50
2024/04/17 12:20:35;;;;;;;4.15;2.50;;;13.20;89.80;;;;;;5466102;26;20472;-55
2024/04/17 12:23:01;;;;;;;5.40;2.70;;;13.30;87.40;;;;;;5433970;26;20110;-50
2024/04/17 12:28:11;;;;;;;10.57;2.78;;;13.40;88.80;;;;;;5461892;26;20023;-54
2024/04/17 12:30:37;;;;;;;5.00;2.50;;;13.50;88.60;;;;;;5474632;26;20338;-51
2024/04/17 12:33:02;;;;;;;3.00;2.67;;;13.60;87.60;;;;;;5474010;26;20010;-51
2024/04/17 12:35:29;;;;;;;5.72;2.88;;;13.70;88.20;;;;;;5466196;26;20007;-53
2024/04/17 12:37:54;;;;;;;3.25;2.60;;;13.80;88.20;;;;;;5469785;26;20007;-53
2024/04/17 12:40:20;;;;;;;3.38;2.60;;;13.60;89.20;;;;;;5437547;26;20355;-53
2024/04/17 12:42:45;;;;;;;2.17;1.88;;;13.60;89.20;;;;;;5457850;26;20071;-54
2024/04/17 12:45:11;;;;;;;3.95;2.20;;;13.60;89.90;;;;;;5459810;26;19994;-53
2024/04/17 12:47:36;;;;;;;5.20;2.78;;;13.70;90.40;;;;;;5463912;26;20023;-47